sensor_id;sensor_type;location;lat;lon;timestamp;pressure;altitude;pressure_sealevel;temperature;humidity
55311;BME280;41173;52.634;-8.666;2024-03-02T16:44:34;145312.41;;;5.87;100.00
55311;BME280;41173;52.634;-8.666;2024-03-02T16:47:00;145358.03;;;6.05;100.00
55311;BME280;41173;52.634;-8.666;2024-03-02T16:49:25;145347.91;;;6.01;100.00
55311;BME280;41173;52.634;-8.666;2024-03-02T16:51:51;145355.53;;;6.04;100.00
55311;BME280;41173;52.634;-8.666;2024-03-02T16:54:16;145361.81;;;6.07;100.00
55311;BME280;41173;52.634;-8.666;2024-03-02T16:56:43;145351.72;;;6.02;100.00
55311;BME280;41173;52.634;-8.666;2024-03-02T16:59:08;145378.31;;;6.13;100.00
55311;BME280;41173;52.634;-8.666;2024-03-02T17:01:34;145370.69;;;6.10;100.00
55311;BME280;41173;52.634;-8.666;2024-03-02T17:04:00;145374.50;;;6.12;100.00
55311;BME280;41173;52.634;-8.666;2024-03-02T17:06:26;145371.94;;;6.11;100.00
55311;BME280;41173;52.634;-8.666;2024-03-02T17:08:52;145346.66;;;6.00;100.00
55311;BME280;41173;52.634;-8.666;2024-03-02T17:11:18;145352.97;;;6.03;100.00
55311;BME280;41173;52.634;-8.666;2024-03-02T17:13:43;145364.38;;;6.08;100.00
55311;BME280;41173;52.634;-8.666;2024-03-02T17:16:10;145379.56;;;6.14;100.00
55311;BME280;41173;52.634;-8.666;2024-03-02T17:18:36;145404.91;;;6.24;100.00
55311;BME280;41173;52.634;-8.666;2024-03-02T17:21:02;145399.84;;;6.22;100.00
55311;BME280;41173;52.634;-8.666;2024-03-02T17:23:27;145384.63;;;6.16;100.00
55311;BME280;41173;52.634;-8.666;2024-03-02T17:25:56;145403.63;;;6.24;100.00
55311;BME280;41173;52.634;-8.666;2024-03-02T17:28:25;145412.50;;;6.27;100.00
55311;BME280;41173;52.634;-8.666;2024-03-02T17:30:52;145407.44;;;6.25;100.00
55311;BME280;41173;52.634;-8.666;2024-03-02T17:33:18;145390.97;;;6.18;100.00
55311;BME280;41173;52.634;-8.666;2024-03-02T17:35:43;145434.03;;;6.36;100.00
55311;BME280;41173;52.634;-8.666;2024-03-02T17:38:15;145446.72;;;6.41;100.00
55311;BME280;41173;52.634;-8.666;2024-03-02T17:40:41;145418.81;;;6.30;100.00
55311;BME280;41173;52.634;-8.666;2024-03-02T17:43:08;145403.63;;;6.24;100.00
55311;BME280;41173;52.634;-8.666;2024-03-02T17:45:34;145379.56;;;6.14;100.00
55311;BME280;41173;52.634;-8.666;2024-03-02T17:47:59;145378.31;;;6.13;100.00
55311;BME280;41173;52.634;-8.666;2024-03-02T17:50:24;145397.28;;;6.21;100.00
55311;BME280;41173;52.634;-8.666;2024-03-02T17:52:50;145346.66;;;6.00;100.00
55311;BME280;41173;52.634;-8.666;2024-03-02T17:55:15;145333.94;;;5.95;100.00
55311;BME280;41173;52.634;-8.666;2024-03-02T17:57:41;145331.38;;;5.94;100.00
55311;BME280;41173;52.634;-8.666;2024-03-02T18:00:06;145322.53;;;5.91;100.00
55311;BME280;41173;52.634;-8.666;2024-03-02T18:02:32;145335.25;;;5.96;100.00
55311;BME280;41173;52.634;-8.666;2024-03-02T18:05:00;145344.09;;;5.99;100.00
55311;BME280;41173;52.634;-8.666;2024-03-02T18:07:25;145307.31;;;5.84;100.00
55311;BME280;41173;52.634;-8.666;2024-03-02T18:09:51;145302.25;;;5.82;100.00
55311;BME280;41173;52.634;-8.666;2024-03-02T18:12:16;145298.44;;;5.81;100.00
55311;BME280;41173;52.634;-8.666;2024-03-02T18:14:42;145313.66;;;5.87;100.00
55311;BME280;41173;52.634;-8.666;2024-03-02T18:17:07;145308.59;;;5.85;100.00
55311;BME280;41173;52.634;-8.666;2024-03-02T18:19:33;145314.91;;;5.88;100.00
55311;BME280;41173;52.634;-8.666;2024-03-02T18:21:58;145326.34;;;5.92;100.00
55311;BME280;41173;52.634;-8.666;2024-03-02T18:24:24;145313.66;;;5.87;100.00
55311;BME280;41173;52.634;-8.666;2024-03-02T18:26:53;145299.75;;;5.81;100.00
55311;BME280;41173;52.634;-8.666;2024-03-02T18:29:18;145301.00;;;5.82;100.00
55311;BME280;41173;52.634;-8.666;2024-03-02T18:31:44;145299.75;;;5.81;100.00
55311;BME280;41173;52.634;-8.666;2024-03-02T18:34:09;145275.69;;;5.72;100.00
55311;BME280;41173;52.634;-8.666;2024-03-02T18:36:35;145304.81;;;5.83;100.00
55311;BME280;41173;52.634;-8.666;2024-03-02T18:39:00;145270.63;;;5.70;100.00
55311;BME280;41173;52.634;-8.666;2024-03-02T18:41:26;145297.19;;;5.80;100.00
55311;BME280;41173;52.634;-8.666;2024-03-02T18:43:51;145261.75;;;5.66;100.00
55311;BME280;41173;52.634;-8.666;2024-03-02T18:46:17;145247.78;;;5.60;100.00
55311;BME280;41173;52.634;-8.666;2024-03-02T18:48:43;145280.72;;;5.74;100.00
55311;BME280;41173;52.634;-8.666;2024-03-02T18:51:09;145283.28;;;5.75;100.00
55311;BME280;41173;52.634;-8.666;2024-03-02T18:53:37;145263.00;;;5.67;100.00
55311;BME280;41173;52.634;-8.666;2024-03-02T18:56:03;145271.88;;;5.70;100.00
55311;BME280;41173;52.634;-8.666;2024-03-02T18:58:30;145231.38;;;5.54;100.00
55311;BME280;41173;52.634;-8.666;2024-03-02T19:00:55;145233.88;;;5.55;100.00
55311;BME280;41173;52.634;-8.666;2024-03-02T19:03:21;145232.63;;;5.54;100.00
55311;BME280;41173;52.634;-8.666;2024-03-02T19:05:47;145194.66;;;5.39;100.00
55311;BME280;41173;52.634;-8.666;2024-03-02T19:08:12;145216.16;;;5.47;100.00
55311;BME280;41173;52.634;-8.666;2024-03-02T19:10:42;145221.22;;;5.50;100.00
55311;BME280;41173;52.634;-8.666;2024-03-02T19:13:08;145221.22;;;5.50;100.00
55311;BME280;41173;52.634;-8.666;2024-03-02T19:15:33;145211.09;;;5.45;100.00
55311;BME280;41173;52.634;-8.666;2024-03-02T19:17:59;145214.91;;;5.47;100.00
55311;BME280;41173;52.634;-8.666;2024-03-02T19:20:24;145216.16;;;5.47;100.00
55311;BME280;41173;52.634;-8.666;2024-03-02T19:22:50;145233.88;;;5.55;100.00
55311;BME280;41173;52.634;-8.666;2024-03-02T19:25:15;145228.81;;;5.53;100.00
55311;BME280;41173;52.634;-8.666;2024-03-02T19:27:41;145236.44;;;5.56;100.00
55311;BME280;41173;52.634;-8.666;2024-03-02T19:30:07;145249.09;;;5.61;100.00
55311;BME280;41173;52.634;-8.666;2024-03-02T19:32:33;145233.88;;;5.55;100.00
55311;BME280;41173;52.634;-8.666;2024-03-02T19:34:59;145227.56;;;5.52;100.00
55311;BME280;41173;52.634;-8.666;2024-03-02T19:37:25;145238.94;;;5.57;100.00
55311;BME280;41173;52.634;-8.666;2024-03-02T19:39:51;145255.41;;;5.63;100.00
55311;BME280;41173;52.634;-8.666;2024-03-02T19:42:16;145230.06;;;5.53;100.00
55311;BME280;41173;52.634;-8.666;2024-03-02T19:44:41;145204.75;;;5.43;100.00
55311;BME280;41173;52.634;-8.666;2024-03-02T19:47:11;145233.88;;;5.55;100.00
55311;BME280;41173;52.634;-8.666;2024-03-02T19:49:36;145195.91;;;5.39;100.00
55311;BME280;41173;52.634;-8.666;2024-03-02T19:52:03;145197.19;;;5.40;100.00
55311;BME280;41173;52.634;-8.666;2024-03-02T19:54:29;145179.44;;;5.33;100.00
55311;BME280;41173;52.634;-8.666;2024-03-02T19:56:54;145192.09;;;5.38;100.00
55311;BME280;41173;52.634;-8.666;2024-03-02T19:59:21;145187.03;;;5.36;100.00
55311;BME280;41173;52.634;-8.666;2024-03-02T20:01:47;145190.84;;;5.37;100.00
55311;BME280;41173;52.634;-8.666;2024-03-02T20:04:12;145130.09;;;5.13;100.00
55311;BME280;41173;52.634;-8.666;2024-03-02T20:06:38;145159.22;;;5.24;100.00
55311;BME280;41173;52.634;-8.666;2024-03-02T20:09:04;145099.72;;;5.00;100.00
55311;BME280;41173;52.634;-8.666;2024-03-02T20:11:32;145117.44;;;5.07;100.00
55311;BME280;41173;52.634;-8.666;2024-03-02T20:13:59;145131.34;;;5.13;100.00
55311;BME280;41173;52.634;-8.666;2024-03-02T20:16:24;145125.03;;;5.11;100.00
55311;BME280;41173;52.634;-8.666;2024-03-02T20:18:50;145128.81;;;5.12;100.00
55311;BME280;41173;52.634;-8.666;2024-03-02T20:21:16;145085.78;;;4.95;100.00
55311;BME280;41173;52.634;-8.666;2024-03-02T20:23:42;145090.88;;;4.97;100.00
55311;BME280;41173;52.634;-8.666;2024-03-02T20:26:07;145144.00;;;5.18;100.00
55311;BME280;41173;52.634;-8.666;2024-03-02T20:28:33;145131.34;;;5.13;100.00
55311;BME280;41173;52.634;-8.666;2024-03-02T20:30:59;145176.94;;;5.32;100.00
55311;BME280;41173;52.634;-8.666;2024-03-02T20:33:25;145130.09;;;5.13;100.00
55311;BME280;41173;52.634;-8.666;2024-03-02T20:35:51;145130.09;;;5.13;100.00
55311;BME280;41173;52.634;-8.666;2024-03-02T20:38:16;145125.03;;;5.11;100.00
55311;BME280;41173;52.634;-8.666;2024-03-02T20:40:42;145131.34;;;5.13;100.00
55311;BME280;41173;52.634;-8.666;2024-03-02T20:43:10;145126.28;;;5.11;100.00
55311;BME280;41173;52.634;-8.666;2024-03-02T20:45:36;145125.03;;;5.11;100.00
55311;BME280;41173;52.634;-8.666;2024-03-02T20:48:01;145049.13;;;4.80;100.00
55311;BME280;41173;52.634;-8.666;2024-03-02T20:50:27;145080.72;;;4.93;100.00
55311;BME280;41173;52.634;-8.666;2024-03-02T20:52:52;145066.81;;;4.87;100.00
55311;BME280;41173;52.634;-8.666;2024-03-02T20:55:21;145057.97;;;4.83;100.00
55311;BME280;41173;52.634;-8.666;2024-03-02T20:57:47;145089.56;;;4.96;100.00
55311;BME280;41173;52.634;-8.666;2024-03-02T21:00:13;145087.06;;;4.95;100.00
55311;BME280;41173;52.634;-8.666;2024-03-02T21:02:39;145084.53;;;4.94;100.00
55311;BME280;41173;52.634;-8.666;2024-03-02T21:05:05;145076.94;;;4.91;100.00
55311;BME280;41173;52.634;-8.666;2024-03-02T21:07:31;145073.13;;;4.89;100.00
55311;BME280;41173;52.634;-8.666;2024-03-02T21:10:00;145104.78;;;5.02;100.00
55311;BME280;41173;52.634;-8.666;2024-03-02T21:12:25;145094.63;;;4.98;100.00
55311;BME280;41173;52.634;-8.666;2024-03-02T21:14:51;145106.03;;;5.03;100.00
55311;BME280;41173;52.634;-8.666;2024-03-02T21:17:16;145107.28;;;5.03;100.00
55311;BME280;41173;52.634;-8.666;2024-03-02T21:19:42;145104.78;;;5.02;100.00
55311;BME280;41173;52.634;-8.666;2024-03-02T21:22:08;145108.59;;;5.04;100.00
55311;BME280;41173;52.634;-8.666;2024-03-02T21:24:33;145093.38;;;4.98;100.00
55311;BME280;41173;52.634;-8.666;2024-03-02T21:27:00;145094.63;;;4.98;100.00
55311;BME280;41173;52.634;-8.666;2024-03-02T21:29:26;145094.63;;;4.98;100.00
55311;BME280;41173;52.634;-8.666;2024-03-02T21:31:51;145113.63;;;5.06;100.00
55311;BME280;41173;52.634;-8.666;2024-03-02T21:34:21;145085.78;;;4.95;100.00
55311;BME280;41173;52.634;-8.666;2024-03-02T21:36:47;145087.06;;;4.95;100.00
55311;BME280;41173;52.634;-8.666;2024-03-02T21:39:12;145079.47;;;4.92;100.00
55311;BME280;41173;52.634;-8.666;2024-03-02T21:41:37;145082.03;;;4.93;100.00
55311;BME280;41173;52.634;-8.666;2024-03-02T21:44:03;145093.38;;;4.98;100.00
55311;BME280;41173;52.634;-8.666;2024-03-02T21:46:29;144640.94;;;5.13;100.00
55311;BME280;41173;52.634;-8.666;2024-03-02T21:48:55;144680.59;;;5.00;100.00
55311;BME280;41173;52.634;-8.666;2024-03-02T21:51:20;143601.13;;;5.02;100.00
55311;BME280;41173;52.634;-8.666;2024-03-02T21:53:46;142448.63;;;5.09;100.00
55311;BME280;41173;52.634;-8.666;2024-03-02T21:56:12;140185.00;;;5.06;100.00
55311;BME280;41173;52.634;-8.666;2024-03-02T21:58:39;138091.84;;;5.07;100.00
55311;BME280;41173;52.634;-8.666;2024-03-02T22:01:04;135475.09;;;5.13;100.00
55311;BME280;41173;52.634;-8.666;2024-03-02T22:03:30;133324.22;;;4.98;100.00
55311;BME280;41173;52.634;-8.666;2024-03-02T22:05:56;129511.47;;;4.88;100.00
55311;BME280;41173;52.634;-8.666;2024-03-02T22:08:22;125306.50;;;4.86;100.00
55311;BME280;41173;52.634;-8.666;2024-03-02T22:10:47;122731.41;;;4.84;100.00
55311;BME280;41173;52.634;-8.666;2024-03-02T22:13:12;119280.66;;;4.89;100.00
55311;BME280;41173;52.634;-8.666;2024-03-02T22:15:38;115343.84;;;4.88;100.00
55311;BME280;41173;52.634;-8.666;2024-03-02T22:18:04;111997.50;;;4.83;100.00
55311;BME280;41173;52.634;-8.666;2024-03-02T22:20:29;107904.25;;;4.93;100.00
55311;BME280;41173;52.634;-8.666;2024-03-02T22:22:55;104176.03;;;4.94;100.00
55311;BME280;41173;52.634;-8.666;2024-03-02T22:25:20;100519.72;;;4.96;100.00
55311;BME280;41173;52.634;-8.666;2024-03-02T22:27:45;98472.47;;;4.99;100.00
55311;BME280;41173;52.634;-8.666;2024-03-02T22:30:17;97793.25;;;4.93;100.00
55311;BME280;41173;52.634;-8.666;2024-03-02T22:32:42;94799.47;;;4.96;100.00
55311;BME280;41173;52.634;-8.666;2024-03-02T22:35:09;92365.34;;;4.99;100.00
55311;BME280;41173;52.634;-8.666;2024-03-02T22:37:35;90410.38;;;5.06;100.00
55311;BME280;41173;52.634;-8.666;2024-03-02T22:40:00;87510.72;;;5.17;100.00
55311;BME280;41173;52.634;-8.666;2024-03-02T22:42:25;88042.78;;;5.02;100.00
55311;BME280;41173;52.634;-8.666;2024-03-02T22:44:51;86376.41;;;4.95;100.00
55311;BME280;41173;52.634;-8.666;2024-03-02T22:47:16;84704.09;;;4.92;100.00
55311;BME280;41173;52.634;-8.666;2024-03-02T22:49:42;82574.22;;;4.95;100.00
55311;BME280;41173;52.634;-8.666;2024-03-02T22:52:07;81184.19;;;5.03;100.00
55311;BME280;41173;52.634;-8.666;2024-03-02T22:54:33;80315.56;;;5.04;100.00
55311;BME280;41173;52.634;-8.666;2024-03-02T22:56:58;77997.00;;;5.10;100.00
55311;BME280;41173;52.634;-8.666;2024-03-02T22:59:24;78863.66;;;5.06;100.00
55311;BME280;41173;52.634;-8.666;2024-03-02T23:01:49;77171.75;;;5.02;100.00
55311;BME280;41173;52.634;-8.666;2024-03-02T23:04:14;76845.38;;;5.06;100.00
55311;BME280;41173;52.634;-8.666;2024-03-02T23:06:40;74197.34;;;5.11;100.00
55311;BME280;41173;52.634;-8.666;2024-03-02T23:09:06;73216.81;;;5.22;100.00
55311;BME280;41173;52.634;-8.666;2024-03-02T23:11:33;75535.66;;;5.19;100.00
55311;BME280;41173;52.634;-8.666;2024-03-02T23:13:59;74868.06;;;5.16;100.00
55311;BME280;41173;52.634;-8.666;2024-03-02T23:16:24;77169.69;;;5.00;100.00
55311;BME280;41173;52.634;-8.666;2024-03-02T23:18:52;72865.69;;;5.06;100.00
55311;BME280;41173;52.634;-8.666;2024-03-02T23:21:17;74824.03;;;4.82;100.00
55311;BME280;41173;52.634;-8.666;2024-03-02T23:23:43;75146.91;;;4.76;100.00
55311;BME280;41173;52.634;-8.666;2024-03-02T23:26:08;78809.16;;;4.55;100.00
55311;BME280;41173;52.634;-8.666;2024-03-02T23:28:33;73804.47;;;4.63;100.00
55311;BME280;41173;52.634;-8.666;2024-03-02T23:30:59;75114.78;;;4.51;100.00
55311;BME280;41173;52.634;-8.666;2024-03-02T23:33:24;75762.16;;;4.39;100.00
55311;BME280;41173;52.634;-8.666;2024-03-02T23:35:50;74091.59;;;4.28;100.00
55311;BME280;41173;52.634;-8.666;2024-03-02T23:38:15;68173.22;;;4.61;100.00
55311;BME280;41173;52.634;-8.666;2024-03-02T23:40:40;67526.63;;;4.74;100.00
55311;BME280;41173;52.634;-8.666;2024-03-02T23:43:34;69153.06;;;4.50;100.00
55311;BME280;41173;52.634;-8.666;2024-03-02T23:45:59;69806.84;;;4.44;100.00
55311;BME280;41173;52.634;-8.666;2024-03-02T23:48:25;65513.97;;;4.50;100.00
55311;BME280;41173;52.634;-8.666;2024-03-02T23:50:50;65858.19;;;4.62;100.00
55311;BME280;41173;52.634;-8.666;2024-03-02T23:53:16;66827.09;;;4.42;100.00
55311;BME280;41173;52.634;-8.666;2024-03-02T23:55:41;64842.31;;;4.41;100.00
55311;BME280;41173;52.634;-8.666;2024-03-02T23:58:07;64854.53;;;4.51;100.00
